createdAt,value
2022-09-24T00:02:01.827Z,12.10
2022-09-24T00:04:32.586Z,12.10
2022-09-24T00:07:04.434Z,11.60
2022-09-24T00:09:36.353Z,11.70
2022-09-24T00:12:13.177Z,11.70
2022-09-24T00:14:44.238Z,9.80
2022-09-24T00:17:14.978Z,8.70
2022-09-24T00:19:48.045Z,8.20
2022-09-24T00:22:20.618Z,7.30
2022-09-24T00:25:07.688Z,7.20
2022-09-24T00:27:41.002Z,7.30
2022-09-24T00:30:13.381Z,7.70
2022-09-24T00:32:44.088Z,7.90
2022-09-24T00:35:14.743Z,7.40
2022-09-24T00:37:45.395Z,7.30
2022-09-24T00:40:16.743Z,7.80
2022-09-24T00:42:50.205Z,7.70
2022-09-24T00:45:21.192Z,8.70
2022-09-24T00:47:55.671Z,8.60
2022-09-24T00:50:31.329Z,7.80
2022-09-24T00:53:06.356Z,7.70
2022-09-24T00:55:39.447Z,7.90
2022-09-24T00:58:14.493Z,7.70
2022-09-24T01:00:46.222Z,7.90
2022-09-24T01:03:21.300Z,7.90
2022-09-24T01:05:53.280Z,7.90
2022-09-24T01:08:25.854Z,8.10
2022-09-24T01:11:13.822Z,8.00
2022-09-24T01:13:57.976Z,8.80
2022-09-24T01:16:34.809Z,9.40
2022-09-24T01:19:21.931Z,9.80
2022-09-24T01:21:56.277Z,9.50
2022-09-24T01:24:50.223Z,10.60
2022-09-24T01:27:24.980Z,10.70
2022-09-24T01:30:06.581Z,10.20
2022-09-24T01:32:40.492Z,9.90
2022-09-24T01:35:18.205Z,10.80
2022-09-24T01:37:57.353Z,9.90
2022-09-24T01:40:30.851Z,9.70
2022-09-24T01:43:05.012Z,10.40
2022-09-24T01:45:40.789Z,10.90
2022-09-24T01:48:11.960Z,11.50
2022-09-24T01:50:47.453Z,11.80
2022-09-24T01:53:23.017Z,11.70
2022-09-24T01:55:57.850Z,12.10
2022-09-24T01:58:32.792Z,12.00
2022-09-24T02:01:13.371Z,12.90
2022-09-24T02:03:50.613Z,12.10
2022-09-24T02:06:28.762Z,12.20
2022-09-24T02:09:00.987Z,13.90
2022-09-24T02:11:38.085Z,13.50
2022-09-24T02:14:14.843Z,13.80
2022-09-24T02:16:51.847Z,15.10
2022-09-24T02:19:26.544Z,15.40
2022-09-24T02:21:57.935Z,14.30
2022-09-24T02:24:36.945Z,14.50
2022-09-24T02:27:07.799Z,14.60
2022-09-24T02:29:41.240Z,14.40
2022-09-24T02:32:20.527Z,15.10
2022-09-24T02:34:57.241Z,16.10
2022-09-24T02:37:28.447Z,16.30
2022-09-24T02:39:59.243Z,15.90
2022-09-24T02:42:31.418Z,16.50
2022-09-24T02:45:04.554Z,16.20
2022-09-24T02:47:38.319Z,17.40
2022-09-24T02:50:11.446Z,17.60
2022-09-24T02:52:42.599Z,18.00
2022-09-24T02:55:14.326Z,17.70
2022-09-24T02:57:47.616Z,17.80
2022-09-24T03:00:21.144Z,18.40
2022-09-24T03:03:02.982Z,18.50
2022-09-24T03:05:34.186Z,18.90
2022-09-24T03:08:07.507Z,18.60
2022-09-24T03:10:38.216Z,19.30
2022-09-24T03:13:11.443Z,20.40
2022-09-24T03:15:42.388Z,19.80
2022-09-24T03:18:15.968Z,18.90
2022-09-24T03:20:46.863Z,19.60
2022-09-24T03:23:18.596Z,20.50
2022-09-24T03:25:49.264Z,20.20
2022-09-24T03:28:20.493Z,22.20
2022-09-24T03:31:03.516Z,22.50
2022-09-24T03:33:41.792Z,22.40
2022-09-24T03:36:14.992Z,22.30
2022-09-24T03:38:56.647Z,22.50
2022-09-24T03:41:29.031Z,21.80
2022-09-24T03:43:59.844Z,20.70
2022-09-24T03:46:30.818Z,20.30
2022-09-24T03:49:04.253Z,21.30
2022-09-24T03:51:35.160Z,22.50
2022-09-24T03:54:06.280Z,23.30
2022-09-24T03:56:38.521Z,23.30
2022-09-24T03:59:10.048Z,24.70
2022-09-24T04:01:43.445Z,26.60
2022-09-24T04:04:16.900Z,29.60
2022-09-24T04:06:49.922Z,31.40
2022-09-24T04:09:24.160Z,33.60
2022-09-24T04:11:55.087Z,35.00
2022-09-24T04:14:25.954Z,34.80
2022-09-24T04:16:57.484Z,35.60
2022-09-24T04:19:32.025Z,40.50
2022-09-24T04:22:03.223Z,45.70
2022-09-24T04:24:34.245Z,62.60
2022-09-24T04:27:04.933Z,63.40
2022-09-24T04:29:35.676Z,66.10
2022-09-24T04:32:08.932Z,64.40
2022-09-24T04:34:42.222Z,61.30
2022-09-24T04:37:12.887Z,61.90
2022-09-24T04:39:43.525Z,58.80
2022-09-24T04:42:19.642Z,62.70
2022-09-24T04:44:55.329Z,66.10
2022-09-24T04:47:27.012Z,70.20
2022-09-24T04:50:02.711Z,69.30
2022-09-24T04:52:34.252Z,70.10
2022-09-24T04:55:05.200Z,64.10
2022-09-24T04:57:37.769Z,67.40
2022-09-24T05:00:15.360Z,70.80
2022-09-24T05:02:46.839Z,64.70
2022-09-24T05:05:20.409Z,66.10
2022-09-24T05:07:56.783Z,64.60
2022-09-24T05:10:28.491Z,60.60
2022-09-24T05:12:59.226Z,66.10
2022-09-24T05:15:32.977Z,70.20
2022-09-24T05:18:06.254Z,74.10
2022-09-24T05:20:39.637Z,79.70
2022-09-24T05:23:10.520Z,88.60
2022-09-24T05:26:01.506Z,89.10
2022-09-24T05:28:30.977Z,87.70
2022-09-24T05:31:02.865Z,88.90
2022-09-24T05:33:33.720Z,85.80
2022-09-24T05:36:07.415Z,84.60
2022-09-24T05:38:41.975Z,85.90
2022-09-24T05:41:15.070Z,89.20
2022-09-24T05:43:46.203Z,84.30
2022-09-24T05:46:17.031Z,83.60
2022-09-24T05:48:47.920Z,90.80
2022-09-24T05:51:21.345Z,79.30
2022-09-24T05:53:55.100Z,79.40
2022-09-24T05:56:28.067Z,78.80
2022-09-24T05:59:01.203Z,78.00
2022-09-24T06:01:32.720Z,74.40
2022-09-24T06:04:08.619Z,79.40
2022-09-24T06:06:44.544Z,72.50
2022-09-24T06:09:15.540Z,70.30
2022-09-24T06:11:50.337Z,67.00
2022-09-24T06:14:21.265Z,67.20
2022-09-24T06:16:52.057Z,69.60
2022-09-24T06:19:23.971Z,69.00
2022-09-24T06:21:57.921Z,64.20
2022-09-24T06:24:28.797Z,63.60
2022-09-24T06:27:02.043Z,66.10
2022-09-24T06:29:34.983Z,62.80
2022-09-24T06:32:06.416Z,70.30
2022-09-24T06:34:37.122Z,65.30
2022-09-24T06:37:14.239Z,66.20
2022-09-24T06:39:45.009Z,58.30
2022-09-24T06:42:15.758Z,49.60
2022-09-24T06:44:46.868Z,38.90
2022-09-24T06:47:17.585Z,36.90
2022-09-24T06:49:50.964Z,40.40
2022-09-24T06:52:24.338Z,38.10
2022-09-24T06:54:56.043Z,38.10
2022-09-24T06:57:29.135Z,34.40
2022-09-24T07:00:00.040Z,35.80
2022-09-24T07:02:33.661Z,35.10
2022-09-24T07:05:06.486Z,34.10
2022-09-24T07:07:41.233Z,33.10
2022-09-24T07:10:13.401Z,31.30
2022-09-24T07:12:45.418Z,32.60
2022-09-24T07:15:16.345Z,29.50
2022-09-24T07:17:47.083Z,28.40
2022-09-24T07:20:17.979Z,26.40
2022-09-24T07:22:52.524Z,26.40
2022-09-24T07:25:25.826Z,25.30
2022-09-24T07:27:57.132Z,24.50
2022-09-24T07:30:27.899Z,23.80
2022-09-24T07:32:59.397Z,23.00
2022-09-24T07:35:31.191Z,22.50
2022-09-24T07:38:09.769Z,22.00
2022-09-24T07:40:43.291Z,21.10
2022-09-24T07:43:15.060Z,21.30
2022-09-24T07:45:46.717Z,21.40
2022-09-24T07:48:19.913Z,20.60
2022-09-24T07:50:51.170Z,20.80
2022-09-24T07:53:24.900Z,19.80
2022-09-24T07:55:56.417Z,21.00
2022-09-24T07:58:27.200Z,21.00
2022-09-24T08:01:00.772Z,19.10
2022-09-24T08:03:31.625Z,19.20
2022-09-24T08:06:05.395Z,18.20
2022-09-24T08:08:39.134Z,16.90
2022-09-24T08:11:12.102Z,15.30
2022-09-24T08:13:43.102Z,16.30
2022-09-24T08:16:16.382Z,16.40
2022-09-24T08:18:47.374Z,16.60
2022-09-24T08:21:18.748Z,16.00
2022-09-24T08:23:52.245Z,15.80
2022-09-24T08:26:23.059Z,14.70
2022-09-24T08:28:53.791Z,14.10
2022-09-24T08:31:24.970Z,14.60
2022-09-24T08:33:58.858Z,13.50
2022-09-24T08:36:32.427Z,13.70
2022-09-24T08:39:07.038Z,12.00
2022-09-24T08:41:53.768Z,10.20
2022-09-24T08:44:43.163Z,11.10
2022-09-24T08:47:26.339Z,10.40
2022-09-24T08:50:10.111Z,10.80
2022-09-24T08:53:01.347Z,12.50
2022-09-24T08:55:40.518Z,10.80
2022-09-24T08:58:32.888Z,9.30
2022-09-24T09:01:15.116Z,10.10
2022-09-24T09:03:49.577Z,10.10
2022-09-24T09:06:46.130Z,10.10
2022-09-24T09:09:20.540Z,10.10
2022-09-24T09:12:02.638Z,10.10
2022-09-24T09:14:43.431Z,9.50
2022-09-24T09:17:26.528Z,8.90
2022-09-24T09:20:02.464Z,9.80
2022-09-24T09:22:38.438Z,9.30
2022-09-24T09:25:20.947Z,8.90
2022-09-24T09:28:05.980Z,8.30
2022-09-24T09:30:45.519Z,8.90
2022-09-24T09:33:39.769Z,8.50
2022-09-24T09:36:32.386Z,9.80
2022-09-24T09:39:15.192Z,7.80
2022-09-24T09:41:55.012Z,7.40
2022-09-24T09:44:31.614Z,7.80
2022-09-24T09:47:17.335Z,6.90
2022-09-24T09:49:53.500Z,6.90
2022-09-24T09:52:27.130Z,7.70
2022-09-24T09:55:00.784Z,7.50
2022-09-24T09:57:31.655Z,7.20
2022-09-24T10:00:08.375Z,7.00
2022-09-24T10:02:44.198Z,7.20
2022-09-24T10:05:27.497Z,7.20
2022-09-24T10:08:02.085Z,6.00
2022-09-24T10:10:32.815Z,6.20
2022-09-24T10:13:15.603Z,6.70
2022-09-24T10:15:55.805Z,6.20
2022-09-24T10:18:33.747Z,7.00
2022-09-24T10:21:07.680Z,6.00
2022-09-24T10:23:41.724Z,5.70
2022-09-24T10:26:13.201Z,4.90
2022-09-24T10:29:01.568Z,5.00
2022-09-24T10:31:38.659Z,5.80
2022-09-24T10:34:24.288Z,4.90
2022-09-24T10:36:56.784Z,5.00
2022-09-24T10:39:27.989Z,4.20
2022-09-24T10:42:03.043Z,3.90
2022-09-24T10:44:39.998Z,3.60
2022-09-24T10:47:26.790Z,4.20
2022-09-24T10:50:30.246Z,3.50
2022-09-24T10:53:04.364Z,4.20
2022-09-24T10:55:55.435Z,3.70
2022-09-24T10:58:59.924Z,4.40
2022-09-24T11:01:39.062Z,1.80
2022-09-24T11:04:46.182Z,1.80
2022-09-24T11:07:47.518Z,1.00
2022-09-24T11:10:29.106Z,2.00
2022-09-24T11:13:13.191Z,1.80
2022-09-24T11:16:11.669Z,1.00
2022-09-24T11:18:52.771Z,1.00
2022-09-24T11:21:36.043Z,2.70
2022-09-24T11:24:31.924Z,1.00
2022-09-24T11:27:16.114Z,1.00
2022-09-24T11:30:10.232Z,2.10
2022-09-24T11:32:57.885Z,1.00
2022-09-24T11:35:59.473Z,1.00
2022-09-24T11:38:42.864Z,2.20
2022-09-24T11:41:33.552Z,2.90
2022-09-24T11:44:25.810Z,2.50
2022-09-24T11:47:09.445Z,2.20
2022-09-24T11:49:58.006Z,1.30
2022-09-24T11:52:34.505Z,2.20
2022-09-24T11:55:12.966Z,3.70
2022-09-24T11:57:53.557Z,3.10
2022-09-24T12:00:24.776Z,2.00
2022-09-24T12:03:04.239Z,1.90
2022-09-24T12:05:39.764Z,2.00
2022-09-24T12:08:15.932Z,3.00
2022-09-24T12:10:52.405Z,4.30
2022-09-24T12:13:38.178Z,5.40
2022-09-24T12:16:14.269Z,4.90
2022-09-24T12:18:51.411Z,4.40
2022-09-24T12:21:28.822Z,3.50
2022-09-24T12:24:08.751Z,3.80
2022-09-24T12:26:42.200Z,3.70
2022-09-24T12:29:46.993Z,4.70
2022-09-24T12:32:37.870Z,4.60
2022-09-24T12:35:20.055Z,4.60
2022-09-24T12:37:54.160Z,4.70
2022-09-24T12:40:46.185Z,4.60
2022-09-24T12:43:26.590Z,6.30
2022-09-24T12:46:04.893Z,5.40
2022-09-24T12:48:40.205Z,5.70
2022-09-24T12:51:12.899Z,6.00
2022-09-24T12:53:46.540Z,5.40
2022-09-24T12:56:27.354Z,5.00
2022-09-24T12:58:58.639Z,6.00
2022-09-24T13:01:35.270Z,6.10
2022-09-24T13:04:28.059Z,6.10
2022-09-24T13:06:59.233Z,6.30
2022-09-24T13:09:37.008Z,6.00
2022-09-24T13:12:24.641Z,6.40
2022-09-24T13:15:02.569Z,6.90
2022-09-24T13:17:40.146Z,6.70
2022-09-24T13:20:22.752Z,7.00
2022-09-24T13:23:00.764Z,7.30
2022-09-24T13:25:34.269Z,7.10
2022-09-24T13:28:07.176Z,6.20
2022-09-24T13:30:43.109Z,5.70
2022-09-24T13:33:24.565Z,5.70
2022-09-24T13:36:08.531Z,6.60
2022-09-24T13:38:44.791Z,6.10
2022-09-24T13:41:27.568Z,7.20
2022-09-24T13:44:02.996Z,6.90
2022-09-24T13:46:36.706Z,6.50
2022-09-24T13:49:18.855Z,6.30
2022-09-24T13:51:57.871Z,6.90
2022-09-24T13:54:35.908Z,5.90
2022-09-24T13:57:15.346Z,6.40
2022-09-24T13:59:48.727Z,6.40
2022-09-24T14:02:27.958Z,5.00
2022-09-24T14:05:18.729Z,5.30
2022-09-24T14:08:02.219Z,5.40
2022-09-24T14:10:36.112Z,7.10
2022-09-24T14:13:21.832Z,7.30
2022-09-24T14:15:54.736Z,5.20
2022-09-24T14:18:26.971Z,4.30
2022-09-24T14:21:06.242Z,5.50
2022-09-24T14:23:44.870Z,6.10
2022-09-24T14:26:30.038Z,3.70
2022-09-24T14:29:02.766Z,3.30
2022-09-24T14:31:33.820Z,3.40
2022-09-24T14:34:12.921Z,4.50
2022-09-24T14:36:47.055Z,4.50
2022-09-24T14:39:20.415Z,4.90
2022-09-24T14:41:51.571Z,5.40
2022-09-24T14:44:26.167Z,5.60
2022-09-24T14:47:01.125Z,5.60
2022-09-24T14:49:35.238Z,6.10
2022-09-24T14:52:11.267Z,6.40
2022-09-24T14:54:45.292Z,6.60
2022-09-24T14:57:27.860Z,6.90
2022-09-24T14:59:59.122Z,7.10
2022-09-24T15:02:37.383Z,8.00
2022-09-24T15:05:12.360Z,7.50
2022-09-24T15:07:46.746Z,8.90
2022-09-24T15:10:24.796Z,9.70
2022-09-24T15:12:55.619Z,10.50
2022-09-24T15:15:32.096Z,10.90
2022-09-24T15:18:17.417Z,10.20
2022-09-24T15:20:48.932Z,10.60
2022-09-24T15:23:22.472Z,10.50
2022-09-24T15:25:53.344Z,10.50
2022-09-24T15:28:27.210Z,11.60
2022-09-24T15:30:58.319Z,12.40
2022-09-24T15:33:29.696Z,11.60
2022-09-24T15:36:01.920Z,12.80
2022-09-24T15:38:35.349Z,12.10
2022-09-24T15:41:06.131Z,12.20
2022-09-24T15:43:37.046Z,12.80
2022-09-24T15:46:08.305Z,12.90
2022-09-24T15:48:40.139Z,13.80
2022-09-24T15:51:15.680Z,13.50
2022-09-24T15:53:50.483Z,14.20
2022-09-24T15:56:22.075Z,15.40
2022-09-24T15:58:53.954Z,15.20
2022-09-24T16:01:25.638Z,14.30
2022-09-24T16:03:56.731Z,14.60
2022-09-24T16:06:27.728Z,15.00
2022-09-24T16:09:01.256Z,15.90
2022-09-24T16:11:33.902Z,17.30
2022-09-24T16:14:07.856Z,15.90
2022-09-24T16:16:42.023Z,16.20
2022-09-24T16:19:15.965Z,16.50
2022-09-24T16:21:47.892Z,17.70
2022-09-24T16:24:21.515Z,16.00
2022-09-24T16:26:52.453Z,16.90
2022-09-24T16:29:24.283Z,16.50
2022-09-24T16:31:55.055Z,16.60
2022-09-24T16:34:26.384Z,17.10
2022-09-24T16:36:57.156Z,17.70
2022-09-24T16:39:30.957Z,17.50
2022-09-24T16:42:01.875Z,18.10
2022-09-24T16:44:32.937Z,19.10
2022-09-24T16:47:03.654Z,19.80
2022-09-24T16:49:34.815Z,19.10
2022-09-24T16:52:06.252Z,19.00
2022-09-24T16:54:39.604Z,19.00
2022-09-24T16:57:10.407Z,19.70
2022-09-24T16:59:43.985Z,19.70
2022-09-24T17:02:15.818Z,20.00
2022-09-24T17:04:46.649Z,19.90
2022-09-24T17:07:18.698Z,21.00
2022-09-24T17:10:04.566Z,20.00
2022-09-24T17:12:35.693Z,20.90
2022-09-24T17:15:07.429Z,22.40
2022-09-24T17:17:48.621Z,22.10
2022-09-24T17:20:21.625Z,20.40
2022-09-24T17:22:52.487Z,20.70
2022-09-24T17:25:28.276Z,22.60
2022-09-24T17:28:00.062Z,24.10
2022-09-24T17:30:30.893Z,23.40
2022-09-24T17:33:14.900Z,24.30
2022-09-24T17:35:56.979Z,20.60
2022-09-24T17:38:30.485Z,23.10
2022-09-24T17:41:10.888Z,22.20
2022-09-24T17:43:43.714Z,24.20
2022-09-24T17:46:16.289Z,22.50
2022-09-24T17:48:52.161Z,23.20
2022-09-24T17:51:26.991Z,24.20
2022-09-24T17:53:58.328Z,22.40
2022-09-24T17:56:33.235Z,23.80
2022-09-24T17:59:04.029Z,23.20
2022-09-24T18:01:37.151Z,23.40
2022-09-24T18:04:10.032Z,22.80
2022-09-24T18:06:42.286Z,22.90
2022-09-24T18:09:14.192Z,22.50
2022-09-24T18:11:56.932Z,22.40
2022-09-24T18:14:28.172Z,23.20
2022-09-24T18:16:59.884Z,23.00
2022-09-24T18:19:30.684Z,24.20
2022-09-24T18:22:06.535Z,23.20
2022-09-24T18:24:37.290Z,24.20
2022-09-24T18:27:15.352Z,25.90
2022-09-24T18:29:47.636Z,24.90
2022-09-24T18:32:20.908Z,24.70
2022-09-24T18:34:51.744Z,25.90
2022-09-24T18:37:22.580Z,26.40
2022-09-24T18:39:54.634Z,27.40
2022-09-24T18:42:28.931Z,27.50
2022-09-24T18:44:59.736Z,27.20
2022-09-24T18:47:33.841Z,27.60
2022-09-24T18:50:04.707Z,28.20
2022-09-24T18:52:38.506Z,27.70
2022-09-24T18:55:12.728Z,29.40
2022-09-24T18:57:46.031Z,31.40
2022-09-24T19:00:29.631Z,30.70
2022-09-24T19:03:00.677Z,32.10
2022-09-24T19:05:31.547Z,35.30
2022-09-24T19:08:03.600Z,35.10
2022-09-24T19:10:35.355Z,35.50
2022-09-24T19:13:09.037Z,34.50
2022-09-24T19:15:42.276Z,35.40
2022-09-24T19:18:15.125Z,36.60
2022-09-24T19:20:49.797Z,36.70
2022-09-24T19:23:20.606Z,37.60
2022-09-24T19:25:52.251Z,39.70
2022-09-24T19:28:25.690Z,39.70
2022-09-24T19:30:57.281Z,38.80
2022-09-24T19:33:28.544Z,40.80
2022-09-24T19:36:02.175Z,43.30
2022-09-24T19:38:37.093Z,44.30
2022-09-24T19:41:10.671Z,41.80
2022-09-24T19:43:45.424Z,40.20
2022-09-24T19:46:17.540Z,34.70
2022-09-24T19:48:50.908Z,33.90
2022-09-24T19:51:23.886Z,35.40
2022-09-24T19:53:59.253Z,35.00
2022-09-24T19:56:31.989Z,33.50
2022-09-24T19:59:08.761Z,33.70
2022-09-24T20:01:40.575Z,36.60
2022-09-24T20:04:11.946Z,36.50
2022-09-24T20:06:45.342Z,38.50
2022-09-24T20:09:16.488Z,39.50
2022-09-24T20:11:52.308Z,43.70
2022-09-24T20:14:28.263Z,41.00
2022-09-24T20:17:02.169Z,36.40
2022-09-24T20:19:34.068Z,37.30
2022-09-24T20:22:06.645Z,38.40
2022-09-24T20:24:39.528Z,40.70
2022-09-24T20:27:24.079Z,40.70
2022-09-24T20:29:57.363Z,45.20
2022-09-24T20:32:28.153Z,46.80
2022-09-24T20:35:01.759Z,45.10
2022-09-24T20:37:32.501Z,46.60
2022-09-24T20:40:03.422Z,51.20
2022-09-24T20:42:35.349Z,54.60
2022-09-24T20:45:10.391Z,53.70
2022-09-24T20:47:50.373Z,50.00
2022-09-24T20:50:21.403Z,46.70
2022-09-24T20:52:52.256Z,44.90
2022-09-24T20:55:25.806Z,47.10
2022-09-24T20:57:56.723Z,47.40
2022-09-24T21:00:36.146Z,49.10
2022-09-24T21:03:31.883Z,52.30
2022-09-24T21:06:04.066Z,50.30
2022-09-24T21:08:35.681Z,50.20
2022-09-24T21:11:09.255Z,46.60
2022-09-24T21:13:44.780Z,44.00
2022-09-24T21:16:20.673Z,46.60
2022-09-24T21:18:54.328Z,45.30
2022-09-24T21:21:27.485Z,46.60
2022-09-24T21:24:00.955Z,44.80
2022-09-24T21:26:39.271Z,46.60
2022-09-24T21:29:13.102Z,53.80
2022-09-24T21:31:49.043Z,50.40
2022-09-24T21:34:22.487Z,46.50
2022-09-24T21:36:53.668Z,46.40
2022-09-24T21:39:27.631Z,48.40
2022-09-24T21:42:00.178Z,49.40
2022-09-24T21:44:34.076Z,53.70
2022-09-24T21:47:10.288Z,53.20
2022-09-24T21:49:41.968Z,51.00
2022-09-24T21:52:16.564Z,52.40
2022-09-24T21:54:47.321Z,53.60
2022-09-24T21:57:18.054Z,53.30
2022-09-24T22:00:04.075Z,54.70
2022-09-24T22:02:43.472Z,53.50
2022-09-24T22:05:19.537Z,64.90
2022-09-24T22:07:50.409Z,61.40
2022-09-24T22:10:21.130Z,66.10
2022-09-24T22:12:52.018Z,70.20
2022-09-24T22:15:22.915Z,78.70
2022-09-24T22:17:56.282Z,90.20
2022-09-24T22:20:28.284Z,92.80
2022-09-24T22:22:59.100Z,96.30
2022-09-24T22:25:34.925Z,99.90
2022-09-24T22:28:06.196Z,98.30
2022-09-24T22:30:37.437Z,97.70
2022-09-24T22:33:31.945Z,98.60
2022-09-24T22:36:00.694Z,97.40
2022-09-24T22:38:31.469Z,99.90
2022-09-24T22:41:03.347Z,99.90
2022-09-24T22:43:35.817Z,99.90
2022-09-24T22:46:11.339Z,99.80
2022-09-24T22:48:47.180Z,99.90
2022-09-24T22:51:17.981Z,99.90
2022-09-24T22:53:52.615Z,99.90
2022-09-24T22:56:25.656Z,99.90
2022-09-24T22:58:58.503Z,99.90
2022-09-24T23:01:31.665Z,99.90
2022-09-24T23:04:07.685Z,99.90
2022-09-24T23:06:41.300Z,99.90
2022-09-24T23:09:14.963Z,99.90
2022-09-24T23:11:47.641Z,99.90
2022-09-24T23:14:21.897Z,99.90
2022-09-24T23:16:58.771Z,99.90
2022-09-24T23:19:48.836Z,99.90
2022-09-24T23:22:23.484Z,99.90
2022-09-24T23:24:56.462Z,99.90
2022-09-24T23:27:27.517Z,99.90
2022-09-24T23:29:59.356Z,99.90
2022-09-24T23:32:31.327Z,99.90
2022-09-24T23:35:05.052Z,99.90
2022-09-24T23:37:36.356Z,99.90
2022-09-24T23:40:08.551Z,99.90
2022-09-24T23:42:41.308Z,99.90
2022-09-24T23:45:14.166Z,99.90
2022-09-24T23:47:44.848Z,98.50
2022-09-24T23:50:18.392Z,98.50
2022-09-24T23:52:50.677Z,98.70
2022-09-24T23:55:21.452Z,98.50
2022-09-24T23:57:52.292Z,99.90
